METAR Data
IDs: Format: Raw Decoded Include TAF

Data at: 1814 UTC 20 May 2022

KSYN 201755Z AUTO 00000KT 10SM BKN110 14/09 A2953 RMK AO2 60001 T01440090 10144 20115
KSYN 201735Z AUTO 00000KT 10SM OVC110 14/09 A2952 RMK AO2 LTG DSNT E T01370088
KSYN 201715Z AUTO 00000KT 10SM OVC110 14/08 A2951 RMK AO2 LTG DSNT E T01360082
KSYN 201655Z AUTO 00000KT 10SM OVC110 13/09 A2950 RMK AO2 T01340088
KSYN 201635Z AUTO 00000KT 10SM OVC110 13/09 A2949 RMK AO2 LTG DSNT E T01310087
KSYN 201615Z AUTO 00000KT 10SM OVC110 13/09 A2948 RMK AO2 LTG DSNT E T01270087
KSYN 201555Z AUTO 00000KT 10SM OVC110 13/09 A2947 RMK AO2 LTG DSNT E T01260085 P0001
KSYN 201535Z AUTO 00000KT 10SM OVC110 13/09 A2947 RMK AO2 LTG DSNT E T01250093 P0001
KSYN 201515Z AUTO 00000KT 10SM SCT090 OVC110 12/09 A2946 RMK AO2 T01220091 P0001
KSYN 201455Z AUTO 00000KT 10SM OVC110 12/09 A2947 RMK AO2 LTG DSNT E 60001 T01180089 P0001
KSYN 201435Z AUTO 00000KT 10SM -RA OVC110 12/09 A2947 RMK AO2 LTG DSNT E T01180092 P0001
KSYN 201415Z AUTO 00000KT 10SM OVC110 12/09 A2946 RMK AO2 LTG DSNT NE T01160091 P0001
KSYN 201355Z AUTO 00000KT 10SM -RA SCT085 OVC100 12/09 A2944 RMK AO2 LTG DSNT E AND SE T01150093
KSYN 201335Z AUTO 00000KT 10SM OVC100 12/10 A2944 RMK AO2 LTG DSNT E AND SE T01160096
KSYN 201315Z AUTO 00000KT 10SM TS OVC100 12/10 A2941 RMK AO2 LTG DSNT E T01160097
KSYN 201255Z AUTO 00000KT 10SM OVC100 12/10 A2941 RMK AO2 LTG DSNT S T01170098 P0001
KSYN 201235Z AUTO 00000KT 10SM OVC100 12/10 A2939 RMK AO2 T01170098 P0001
KSYN 201215Z AUTO 00000KT 10SM OVC100 12/10 A2939 RMK AO2 LTG DSNT E T01200100 P0001
KSYN 201155Z AUTO 00000KT 10SM OVC100 12/11 A2940 RMK AO2 LTG DSNT E AND SE 60005 70011 T01200105 10155 20120 P0001
KSYN 201135Z AUTO 00000KT 10SM -RA SCT008 SCT039 OVC090 12/11 A2939 RMK AO2 T01240109 P0001
KSYN 201115Z AUTO 00000KT 10SM -VCTSRA SCT008 SCT039 OVC090 13/11 A2939 RMK AO2 LTG DSNT SE T01270112 P0001
KSYN 201055Z AUTO 00000KT 10SM -RA SCT010 OVC090 13/12 A2939 RMK AO2 LTG DSNT SW T01310116
KSYN 201035Z AUTO 00000KT 10SM -RA OVC090 13/12 A2940 RMK AO2 T01330116
KSYN 201015Z AUTO 00000KT 10SM OVC080 14/12 A2933 RMK AO2 LTG DSNT SW T01350115
KSYN 200955Z AUTO 00000KT 10SM VCTS OVC080 14/12 A2935 RMK AO2 LTG DSNT SE T01360116 P0002
KSYN 200935Z AUTO 00000KT 10SM OVC080 14/12 A2934 RMK AO2 LTG DSNT S T01370117 P0002
KSYN 200915Z AUTO 00000KT 10SM OVC080 14/12 A2936 RMK AO2 LTG DSNT NE AND E T01400120 P0002
KSYN 200855Z AUTO 00000KT 10SM VCTS OVC090 14/12 A2936 RMK AO2 LTG DSNT E AND SE 60004 T01400122 P0002
KSYN 200835Z AUTO 00000KT 10SM SCT075 OVC100 14/13 A2940 RMK AO2 T01430126 P0002
KSYN 200815Z AUTO 00000KT 10SM -TSRA SCT060 SCT075 OVC100 15/13 A2936 RMK AO2 LTG DSNT ALQDS T01450127 P0002
KSYN 200755Z AUTO 00000KT 10SM -RA SCT060 BKN075 OVC110 15/13 A2933 RMK AO2 LTG DSNT W T01480130 P0002
KSYN 200735Z AUTO 00000KT 10SM -RA SCT027 SCT039 BKN110 15/13 A2933 RMK AO2 T01500134 P0002
KSYN 200715Z AUTO 00000KT 7SM -RA SCT027 SCT035 OVC070 15/14 A2934 RMK AO2 LTG DSNT SE AND S T01540136 P0001
KSYN 200655Z AUTO 00000KT 10SM SCT060 OVC070 15/14 A2933 RMK AO2 T01530140
KSYN 200635Z AUTO 00000KT 10SM BKN070 BKN080 OVC110 15/14 A2931 RMK AO2 LTG DSNT SW T01500140
KSYN 200615Z AUTO 00000KT 10SM SCT070 BKN110 14/14 A2929 RMK AO2 T01440136
KSYN 200555Z AUTO 00000KT 10SM SCT070 14/14 A2928 RMK AO2 T01430136 10182 20125 402170084
KSYN 200535Z AUTO 00000KT 10SM CLR 14/14 A2925 RMK AO2 LTG DSNT E T01410135
KSYN 200515Z AUTO 00000KT 7SM CLR 14/13 A2924 RMK AO2 LTG DSNT E T01380131
KSYN 200455Z AUTO 00000KT 2 1/2SM BR CLR 13/12 A2922 RMK AO2 T01300123
KSYN 200435Z AUTO 00000KT 1 3/4SM BR VV007 13/12 A2921 RMK AO2 T01270119
KSYN 200415Z AUTO 00000KT 1SM BR VV007 14/13 A2921 RMK AO2 T01380130
KSYN 200355Z AUTO 00000KT 4SM BR CLR 14/13 A2920 RMK AO2 T01420133
KSYN 200335Z AUTO 00000KT 10SM CLR 14/13 A2918 RMK AO2 T01430134
KSYN 200315Z AUTO 07003KT 10SM CLR 15/14 A2917 RMK AO2 T01450135
KSYN 200255Z AUTO 09007KT 10SM CLR 15/13 A2918 RMK AO2 T01450134
KSYN 200235Z AUTO 05006KT 10SM CLR 15/14 A2917 RMK AO2 T01490137
KSYN 200215Z AUTO 03006KT 10SM CLR 15/14 A2920 RMK AO2 LTG DSNT S T01520140
KSYN 200155Z AUTO 05008KT 10SM CLR 16/14 A2922 RMK AO2 T01550142
KSYN 200135Z AUTO 02007KT 10SM CLR 16/14 A2921 RMK AO2 T01600144
KSYN 200115Z AUTO 02006KT 10SM CLR 17/15 A2921 RMK AO2 T01670146
KSYN 200055Z AUTO 05006KT 10SM CLR 18/15 A2921 RMK AO2 T01750150
KSYN 200035Z AUTO 07007KT 10SM CLR 18/15 A2922 RMK AO2 LTG DSNT SE T01810151
KSYN 200015Z AUTO 06006KT 10SM CLR 18/15 A2923 RMK AO2 LTG DSNT SE T01800151